Time;durP1;ratioP1;P1;durP2;ratioP2;P2;SDS_P1;SDS_P2;PMS_P1;PMS_P2;Temp;Humidity;BMP_temperature;BMP_pressure;BME280_temperature;BME280_humidity;BME280_pressure;Samples;Min_cycle;Max_cycle;Signal;HPM_P1;HPM_P2
2022/10/15 00:01:24;;;;;;;;;;;12.30;99.90;;;;;;5078795;28;19955;-77
2022/10/15 00:03:49;;;;;;;;;;;12.30;99.90;;;;;;5074034;28;19961;-78
2022/10/15 00:06:17;;;;;;;;;;;12.30;99.90;;;;;;5075778;28;20265;-77
2022/10/15 00:08:42;;;;;;;;;;;12.30;99.90;;;;;;5074326;28;19916;-76
2022/10/15 00:11:10;;;;;;;;;;;12.30;99.90;;;;;;5074934;28;19913;-78
2022/10/15 00:13:36;;;;;;;;;;;12.30;99.90;;;;;;5075375;28;19917;-75
2022/10/15 00:16:02;;;;;;;;;;;12.30;99.90;;;;;;5077852;28;19916;-76
2022/10/15 00:18:28;;;;;;;;;;;12.20;99.90;;;;;;5073716;28;19977;-76
2022/10/15 00:20:53;;;;;;;;;;;12.20;99.90;;;;;;5075801;28;20342;-75
2022/10/15 00:23:19;;;;;;;;;;;12.10;99.90;;;;;;5066768;28;19920;-76
2022/10/15 00:25:44;;;;;;;;;;;12.10;99.90;;;;;;5068300;28;20008;-77
2022/10/15 00:28:10;;;;;;;;;;;12.10;99.90;;;;;;5057370;28;19995;-77
2022/10/15 00:30:36;;;;;;;;;;;12.00;99.90;;;;;;5068446;28;19920;-76
2022/10/15 00:33:01;;;;;;;;;;;12.00;99.90;;;;;;5053020;28;20346;-77
2022/10/15 00:35:27;;;;;;;;;;;11.90;99.90;;;;;;5044475;28;20338;-77
2022/10/15 00:37:52;;;;;;;;;;;11.90;99.90;;;;;;5049848;28;19913;-77
2022/10/15 00:40:18;;;;;;;;;;;11.90;99.90;;;;;;5052641;28;20275;-77
2022/10/15 00:42:44;;;;;;;;;;;11.90;99.90;;;;;;5054185;28;19928;-78
2022/10/15 00:45:11;;;;;;;;;;;11.80;99.90;;;;;;5052096;28;19913;-77
2022/10/15 00:47:41;;;;;;;;;;;11.80;99.90;;;;;;5042424;28;19923;-76
2022/10/15 00:50:15;;;;;;;;;;;11.70;99.90;;;;;;5054737;28;19917;-77
2022/10/15 00:52:50;;;;;;;;;;;11.70;99.90;;;;;;5047620;28;19932;-77
2022/10/15 00:55:32;;;;;;;;;;;11.70;99.90;;;;;;5048659;28;20362;-76
2022/10/15 00:58:00;;;;;;;;;;;11.70;99.90;;;;;;5044134;28;20438;-77
2022/10/15 01:00:26;;;;;;;;;;;11.70;99.90;;;;;;5055171;28;20000;-76
2022/10/15 01:02:52;;;;;;;;;;;11.70;99.90;;;;;;5051746;28;20001;-76
2022/10/15 01:05:17;;;;;;;;;;;11.70;99.90;;;;;;5055129;28;20223;-78
2022/10/15 01:07:43;;;;;;;;;;;11.70;99.90;;;;;;5052365;28;20299;-76
2022/10/15 01:10:09;;;;;;;;;;;11.70;99.90;;;;;;5057449;28;19975;-77
2022/10/15 01:12:44;;;;;;;;;;;11.70;99.90;;;;;;5046042;28;19959;-77
2022/10/15 01:15:12;;;;;;;;;;;11.70;99.90;;;;;;5050054;28;20003;-77
2022/10/15 01:17:45;;;;;;;;;;;11.60;99.90;;;;;;5053150;28;19916;-77
2022/10/15 01:20:16;;;;;;;;;;;11.70;99.90;;;;;;5051873;28;19952;-77
2022/10/15 01:22:42;;;;;;;;;;;11.70;99.90;;;;;;5044743;28;19917;-77
2022/10/15 01:25:10;;;;;;;;;;;11.70;99.90;;;;;;5052613;28;19962;-77
2022/10/15 01:27:49;;;;;;;;;;;11.70;99.90;;;;;;5048436;28;19920;-78
2022/10/15 01:30:17;;;;;;;;;;;11.70;99.90;;;;;;5040783;28;19913;-77
2022/10/15 01:32:49;;;;;;;;;;;11.70;99.90;;;;;;5072101;28;19920;-76
2022/10/15 01:35:29;;;;;;;;;;;11.70;99.90;;;;;;5077950;28;19934;-77
2022/10/15 01:38:13;;;;;;;;;;;11.70;99.90;;;;;;5093411;28;19922;-77
2022/10/15 01:40:49;;;;;;;;;;;11.70;99.90;;;;;;5064849;28;19947;-77
2022/10/15 01:43:18;;;;;;;;;;;11.70;99.90;;;;;;5093003;28;19923;-78
2022/10/15 01:45:55;;;;;;;;;;;11.70;99.90;;;;;;5093906;28;19912;-78
2022/10/15 01:48:21;;;;;;;;;;;11.70;99.90;;;;;;5073385;28;19967;-77
2022/10/15 01:50:49;;;;;;;;;;;11.80;99.90;;;;;;5084867;28;20286;-76
2022/10/15 01:53:18;;;;;;;;;;;11.90;99.90;;;;;;5088297;28;19928;-78
2022/10/15 01:55:44;;;;;;;;;;;11.90;99.90;;;;;;5098703;28;19947;-78
2022/10/15 01:58:10;;;;;;;;;;;12.00;99.90;;;;;;5095044;28;19966;-77
2022/10/15 02:00:37;;;;;;;;;;;12.00;99.90;;;;;;5092792;28;20325;-77
2022/10/15 02:03:03;;;;;;;;;;;12.00;99.90;;;;;;5096415;28;19912;-77
2022/10/15 02:05:31;;;;;;;;;;;12.10;99.90;;;;;;5096253;28;20073;-77
2022/10/15 02:08:03;;;;;;;;;;;12.10;99.90;;;;;;5097568;28;20226;-77
2022/10/15 02:10:40;;;;;;;;;;;12.00;99.90;;;;;;5077955;28;20381;-77
2022/10/15 02:13:12;;;;;;;;;;;12.00;99.90;;;;;;5080874;28;20378;-77
2022/10/15 02:15:38;;;;;;;;;;;11.90;99.90;;;;;;5077890;28;19923;-76
2022/10/15 02:18:08;;;;;;;;;;;11.90;99.90;;;;;;5082473;28;19912;-77
2022/10/15 02:20:40;;;;;;;;;;;11.90;99.90;;;;;;5078442;28;19920;-77
2022/10/15 02:23:08;;;;;;;;;;;11.90;99.90;;;;;;5082433;28;20006;-78
2022/10/15 02:25:34;;;;;;;;;;;11.90;99.90;;;;;;5093986;28;19912;-77
2022/10/15 02:28:00;;;;;;;;;;;11.90;99.90;;;;;;5095631;28;20306;-78
2022/10/15 02:30:26;;;;;;;;;;;12.00;99.90;;;;;;5076985;28;19920;-78
2022/10/15 02:32:55;;;;;;;;;;;11.90;99.90;;;;;;5073691;28;19924;-78
2022/10/15 02:35:22;;;;;;;;;;;12.00;99.90;;;;;;5095325;28;19919;-78
2022/10/15 02:37:50;;;;;;;;;;;12.10;99.90;;;;;;5071602;28;19947;-77
2022/10/15 02:40:16;;;;;;;;;;;12.10;99.90;;;;;;5089437;28;19916;-80
2022/10/15 02:42:41;;;;;;;;;;;12.10;99.90;;;;;;5067928;28;20003;-79
2022/10/15 02:45:07;;;;;;;;;;;12.10;99.90;;;;;;5093516;28;20002;-77
2022/10/15 02:47:33;;;;;;;;;;;12.20;99.90;;;;;;5060012;28;19916;-78
2022/10/15 02:49:58;;;;;;;;;;;12.20;99.90;;;;;;5089553;28;19961;-78
2022/10/15 02:52:24;;;;;;;;;;;12.20;99.90;;;;;;5091486;28;19938;-79
2022/10/15 02:54:49;;;;;;;;;;;12.30;99.90;;;;;;5093903;28;19916;-78
2022/10/15 02:57:15;;;;;;;;;;;12.30;99.90;;;;;;5094589;28;20280;-78
2022/10/15 02:59:41;;;;;;;;;;;12.30;99.90;;;;;;5063659;28;20364;-78
2022/10/15 03:02:06;;;;;;;;;;;12.30;99.90;;;;;;5092041;28;21972;-77
2022/10/15 03:04:32;;;;;;;;;;;12.30;99.90;;;;;;5063992;28;19952;-77
2022/10/15 03:06:57;;;;;;;;;;;12.30;99.90;;;;;;5092885;28;19916;-78
2022/10/15 03:09:23;;;;;;;;;;;12.30;99.90;;;;;;5088991;28;19916;-79
2022/10/15 03:11:48;;;;;;;;;;;12.30;99.90;;;;;;5088841;28;19928;-78
2022/10/15 03:14:14;;;;;;;;;;;12.20;99.90;;;;;;5071290;28;19923;-78
2022/10/15 03:16:40;;;;;;;;;;;12.20;99.90;;;;;;5074998;28;19920;-78
2022/10/15 03:19:06;;;;;;;;;;;12.20;99.90;;;;;;5072620;28;20274;-77
2022/10/15 03:21:31;;;;;;;;;;;12.20;99.90;;;;;;5090774;28;19955;-78
2022/10/15 03:23:57;;;;;;;;;;;12.10;99.90;;;;;;5092347;28;19924;-77
2022/10/15 03:26:23;;;;;;;;;;;12.10;99.90;;;;;;5073207;28;19919;-77
2022/10/15 03:28:48;;;;;;;;;;;12.10;99.90;;;;;;5089810;28;19920;-78
2022/10/15 03:31:14;;;;;;;;;;;12.00;99.90;;;;;;5089283;28;19916;-78
2022/10/15 03:33:39;;;;;;;;;;;12.00;99.90;;;;;;5089574;28;19920;-78
2022/10/15 03:36:05;;;;;;;;;;;12.00;99.90;;;;;;5090501;28;20015;-77
2022/10/15 03:38:31;;;;;;;;;;;12.00;99.90;;;;;;5074961;28;20007;-77
2022/10/15 03:40:56;;;;;;;;;;;12.00;99.90;;;;;;5092836;28;19919;-77
2022/10/15 03:43:23;;;;;;;;;;;12.00;99.90;;;;;;5083564;28;20246;-77
2022/10/15 03:45:49;;;;;;;;;;;12.00;99.90;;;;;;5068419;28;20250;-76
2022/10/15 03:48:14;;;;;;;;;;;11.90;99.90;;;;;;5096891;28;19916;-77
2022/10/15 03:50:40;;;;;;;;;;;11.90;99.90;;;;;;5092491;28;19973;-77
2022/10/15 03:53:05;;;;;;;;;;;11.90;99.90;;;;;;5082680;28;19974;-77
2022/10/15 03:55:31;;;;;;;;;;;11.90;99.90;;;;;;5077865;28;19912;-77
2022/10/15 03:57:57;;;;;;;;;;;11.80;99.90;;;;;;5094165;28;19961;-77
2022/10/15 04:00:23;;;;;;;;;;;11.80;99.90;;;;;;5077793;28;19988;-77
2022/10/15 04:02:48;;;;;;;;;;;11.80;99.90;;;;;;5077497;28;19912;-79
2022/10/15 04:05:14;;;;;;;;;;;11.80;99.90;;;;;;5093432;28;19983;-77
2022/10/15 04:07:39;;;;;;;;;;;11.70;99.90;;;;;;5102637;28;19940;-78
2022/10/15 04:10:05;;;;;;;;;;;11.70;99.90;;;;;;5097771;28;19970;-78
2022/10/15 04:12:30;;;;;;;;;;;11.70;99.90;;;;;;5078731;28;19923;-77
2022/10/15 04:14:56;;;;;;;;;;;11.80;99.90;;;;;;5086481;28;19912;-79
2022/10/15 04:17:21;;;;;;;;;;;11.80;99.90;;;;;;5106910;28;19989;-79
2022/10/15 04:19:47;;;;;;;;;;;11.90;99.90;;;;;;5105661;28;20008;-79
2022/10/15 04:22:12;;;;;;;;;;;11.90;99.90;;;;;;5096110;28;19965;-79
2022/10/15 04:24:38;;;;;;;;;;;11.90;99.90;;;;;;5080055;28;19955;-78
2022/10/15 04:27:04;;;;;;;;;;;11.90;99.90;;;;;;5079943;28;20259;-79
2022/10/15 04:29:29;;;;;;;;;;;12.00;99.90;;;;;;5077859;28;20223;-80
2022/10/15 04:31:55;;;;;;;;;;;12.00;99.90;;;;;;5078296;28;20157;-80
2022/10/15 04:34:20;;;;;;;;;;;12.00;99.90;;;;;;5098919;28;19939;-79
2022/10/15 04:36:46;;;;;;;;;;;12.00;99.90;;;;;;5101263;28;20218;-79
2022/10/15 04:39:11;;;;;;;;;;;12.10;99.90;;;;;;5099876;28;20617;-79
2022/10/15 04:41:37;;;;;;;;;;;12.10;99.90;;;;;;5074268;28;20380;-79
2022/10/15 04:44:03;;;;;;;;;;;12.10;99.90;;;;;;5100066;28;20010;-79
2022/10/15 04:46:28;;;;;;;;;;;12.10;99.90;;;;;;5101350;28;19996;-80
2022/10/15 04:48:56;;;;;;;;;;;12.10;99.90;;;;;;5069429;28;19943;-80
2022/10/15 04:51:22;;;;;;;;;;;12.10;99.90;;;;;;5090287;28;19912;-79
2022/10/15 04:53:48;;;;;;;;;;;12.10;99.90;;;;;;5095928;28;19923;-79
2022/10/15 04:56:16;;;;;;;;;;;12.10;99.90;;;;;;5079353;28;19934;-80
2022/10/15 04:58:43;;;;;;;;;;;12.20;99.90;;;;;;5093117;28;19920;-79
2022/10/15 05:01:12;;;;;;;;;;;12.20;99.90;;;;;;5088721;28;20307;-78
2022/10/15 05:03:39;;;;;;;;;;;12.20;99.90;;;;;;5106832;28;19931;-77
2022/10/15 05:06:09;;;;;;;;;;;12.20;99.90;;;;;;5093426;28;19925;-79
2022/10/15 05:08:35;;;;;;;;;;;12.30;99.90;;;;;;5114534;28;19964;-79
2022/10/15 05:11:01;;;;;;;;;;;12.30;99.90;;;;;;5111637;28;19908;-79
2022/10/15 05:13:27;;;;;;;;;;;12.30;99.90;;;;;;5107718;28;20306;-79
2022/10/15 05:15:52;;;;;;;;;;;12.40;99.90;;;;;;5110418;28;19950;-80
2022/10/15 05:18:18;;;;;;;;;;;12.40;99.90;;;;;;5084911;28;19912;-80
2022/10/15 05:20:43;;;;;;;;;;;12.40;99.90;;;;;;5098668;28;19915;-80
2022/10/15 05:23:09;;;;;;;;;;;12.50;99.90;;;;;;5092188;28;20199;-77
2022/10/15 05:25:34;;;;;;;;;;;12.50;99.90;;;;;;5109691;28;20318;-80
2022/10/15 05:28:00;;;;;;;;;;;12.60;99.90;;;;;;5105548;28;19916;-80
2022/10/15 05:30:26;;;;;;;;;;;12.60;99.90;;;;;;5105875;28;19912;-78
2022/10/15 05:32:52;;;;;;;;;;;12.60;99.90;;;;;;5106685;28;19920;-80
2022/10/15 05:35:17;;;;;;;;;;;12.60;99.90;;;;;;5089837;28;19915;-79
2022/10/15 05:37:43;;;;;;;;;;;12.60;99.90;;;;;;5105564;28;19912;-79
2022/10/15 05:40:09;;;;;;;;;;;12.60;99.90;;;;;;5093245;28;19919;-79
2022/10/15 05:42:34;;;;;;;;;;;12.70;99.90;;;;;;5071583;28;20385;-76
2022/10/15 05:45:00;;;;;;;;;;;12.70;99.90;;;;;;5111288;28;20226;-78
2022/10/15 05:47:25;;;;;;;;;;;12.70;99.90;;;;;;5101853;28;19919;-79
2022/10/15 05:49:51;;;;;;;;;;;12.70;99.90;;;;;;5090402;28;19923;-79
2022/10/15 05:52:16;;;;;;;;;;;12.70;99.90;;;;;;5108971;28;19916;-78
2022/10/15 05:54:42;;;;;;;;;;;12.70;99.90;;;;;;5088850;28;19948;-77
2022/10/15 05:57:07;;;;;;;;;;;12.70;99.90;;;;;;5105145;28;19916;-79
2022/10/15 05:59:33;;;;;;;;;;;12.70;99.90;;;;;;5108006;28;19911;-79
2022/10/15 06:01:58;;;;;;;;;;;12.70;99.90;;;;;;5101361;28;19919;-80
2022/10/15 06:04:24;;;;;;;;;;;12.70;99.90;;;;;;5094959;28;19912;-79
2022/10/15 06:06:50;;;;;;;;;;;12.70;99.90;;;;;;5104418;28;19919;-80
2022/10/15 06:09:15;;;;;;;;;;;12.70;99.90;;;;;;5092713;28;19916;-79
2022/10/15 06:11:41;;;;;;;;;;;12.70;99.90;;;;;;5091414;28;19919;-78
2022/10/15 06:14:06;;;;;;;;;;;12.70;99.90;;;;;;5105442;28;19919;-78
2022/10/15 06:16:32;;;;;;;;;;;12.70;99.90;;;;;;5090918;28;19918;-78
2022/10/15 06:18:57;;;;;;;;;;;12.70;99.90;;;;;;5078551;28;19955;-78
2022/10/15 06:21:23;;;;;;;;;;;12.70;99.90;;;;;;5104554;28;19916;-79
2022/10/15 06:23:49;;;;;;;;;;;12.70;99.90;;;;;;5100879;28;20299;-77
2022/10/15 06:26:14;;;;;;;;;;;12.70;99.90;;;;;;5106483;28;20380;-79
2022/10/15 06:28:40;;;;;;;;;;;12.70;99.90;;;;;;5093821;28;20223;-79
2022/10/15 06:31:06;;;;;;;;;;;12.70;99.90;;;;;;5111560;28;19968;-77
2022/10/15 06:33:32;;;;;;;;;;;12.70;99.90;;;;;;5097850;28;19923;-78
2022/10/15 06:36:01;;;;;;;;;;;12.60;99.90;;;;;;5082509;28;19991;-78
2022/10/15 06:38:27;;;;;;;;;;;12.70;99.90;;;;;;5087684;28;20306;-78
2022/10/15 06:40:52;;;;;;;;;;;12.70;99.90;;;;;;5077161;28;19918;-76
2022/10/15 06:43:18;;;;;;;;;;;12.70;99.90;;;;;;5106841;28;19911;-77
2022/10/15 06:45:44;;;;;;;;;;;12.70;99.90;;;;;;5102369;28;19957;-79
2022/10/15 06:48:10;;;;;;;;;;;12.70;99.90;;;;;;5103764;28;19965;-76
2022/10/15 06:50:36;;;;;;;;;;;12.70;99.90;;;;;;5073728;28;19924;-78
2022/10/15 06:53:02;;;;;;;;;;;12.70;99.90;;;;;;5090901;28;19950;-78
2022/10/15 06:55:28;;;;;;;;;;;12.70;99.90;;;;;;5102653;28;19915;-76
2022/10/15 06:57:55;;;;;;;;;;;12.70;99.90;;;;;;5082864;28;20210;-77
2022/10/15 07:00:20;;;;;;;;;;;12.70;99.90;;;;;;5105527;28;19916;-78
2022/10/15 07:02:46;;;;;;;;;;;12.70;99.90;;;;;;5108021;28;20271;-75
2022/10/15 07:05:11;;;;;;;;;;;12.70;99.90;;;;;;5089839;28;19916;-77
2022/10/15 07:07:37;;;;;;;;;;;12.70;99.90;;;;;;5105832;28;19923;-75
2022/10/15 07:10:03;;;;;;;;;;;12.80;99.90;;;;;;5104129;28;19999;-77
2022/10/15 07:12:28;;;;;;;;;;;12.80;99.90;;;;;;5084089;28;19949;-76
2022/10/15 07:14:54;;;;;;;;;;;12.80;99.90;;;;;;5105855;28;19968;-78
2022/10/15 07:17:19;;;;;;;;;;;12.80;99.90;;;;;;5101021;28;20010;-77
2022/10/15 07:19:45;;;;;;;;;;;12.80;99.90;;;;;;5080080;28;19920;-79
2022/10/15 07:22:11;;;;;;;;;;;12.90;99.90;;;;;;5069060;28;19916;-78
2022/10/15 07:24:36;;;;;;;;;;;12.90;99.90;;;;;;5100445;28;20269;-78
2022/10/15 07:27:02;;;;;;;;;;;13.00;99.90;;;;;;5079236;28;19913;-77
2022/10/15 07:29:27;;;;;;;;;;;13.00;99.90;;;;;;5093142;28;19999;-79
2022/10/15 07:31:54;;;;;;;;;;;13.00;99.90;;;;;;5099696;28;19920;-78
2022/10/15 07:34:20;;;;;;;;;;;13.00;99.90;;;;;;5076360;28;20006;-79
2022/10/15 07:36:46;;;;;;;;;;;13.10;99.90;;;;;;5062689;28;20202;-78
2022/10/15 07:39:12;;;;;;;;;;;13.10;99.90;;;;;;5115961;28;19947;-77
2022/10/15 07:41:37;;;;;;;;;;;13.10;99.90;;;;;;5078214;28;19916;-79
2022/10/15 07:44:03;;;;;;;;;;;13.20;99.90;;;;;;5100167;28;19936;-78
2022/10/15 07:46:29;;;;;;;;;;;13.20;99.90;;;;;;5083634;28;20319;-78
2022/10/15 07:48:55;;;;;;;;;;;13.20;99.90;;;;;;5098719;28;19908;-77
2022/10/15 07:51:20;;;;;;;;;;;13.20;99.90;;;;;;5080665;28;20015;-78
2022/10/15 07:53:49;;;;;;;;;;;13.20;99.90;;;;;;5097964;28;19924;-78
2022/10/15 07:56:14;;;;;;;;;;;13.20;99.90;;;;;;5082591;28;19919;-77
2022/10/15 07:58:40;;;;;;;;;;;13.20;99.90;;;;;;5098399;28;20562;-77
2022/10/15 08:01:07;;;;;;;;;;;13.30;99.90;;;;;;5080823;28;19973;-78
2022/10/15 08:03:32;;;;;;;;;;;13.30;99.90;;;;;;5099222;28;19908;-78
2022/10/15 08:05:59;;;;;;;;;;;13.30;99.90;;;;;;5097390;28;19922;-77
2022/10/15 08:08:24;;;;;;;;;;;13.30;99.90;;;;;;5099432;28;19944;-78
2022/10/15 08:10:50;;;;;;;;;;;13.30;99.90;;;;;;5099214;28;19943;-77
2022/10/15 08:13:15;;;;;;;;;;;13.30;99.90;;;;;;5098922;28;19927;-77
2022/10/15 08:15:42;;;;;;;;;;;13.30;99.90;;;;;;5097766;28;19916;-78
2022/10/15 08:18:08;;;;;;;;;;;13.30;99.90;;;;;;5081860;28;19912;-80
2022/10/15 08:20:37;;;;;;;;;;;13.40;99.90;;;;;;5082044;28;19908;-78
2022/10/15 08:23:03;;;;;;;;;;;13.40;99.90;;;;;;5097606;28;19999;-77
2022/10/15 08:25:29;;;;;;;;;;;13.40;99.90;;;;;;5074787;28;20029;-77
2022/10/15 08:27:55;;;;;;;;;;;13.40;99.90;;;;;;5093224;28;19912;-79
2022/10/15 08:30:20;;;;;;;;;;;13.40;99.90;;;;;;5097568;28;20318;-78
2022/10/15 08:32:46;;;;;;;;;;;13.50;99.90;;;;;;5089110;28;19920;-78
2022/10/15 08:35:11;;;;;;;;;;;13.50;99.90;;;;;;5096769;28;19927;-78
2022/10/15 08:37:37;;;;;;;;;;;13.50;99.90;;;;;;5099808;28;19920;-76
2022/10/15 08:40:03;;;;;;;;;;;13.60;99.90;;;;;;5099215;28;19908;-77
2022/10/15 08:42:37;;;;;;;;;;;13.60;99.90;;;;;;5102491;28;19998;-77
2022/10/15 08:45:04;;;;;;;;;;;13.60;99.90;;;;;;5086119;28;19942;-77
2022/10/15 08:47:33;;;;;;;;;;;13.60;99.90;;;;;;5101022;28;19908;-80
2022/10/15 08:50:00;;;;;;;;;;;13.70;99.90;;;;;;5079301;28;19924;-77
2022/10/15 08:52:41;;;;;;;;;;;13.70;99.90;;;;;;5068243;28;20394;-76
2022/10/15 08:55:09;;;;;;;;;;;13.70;99.90;;;;;;5058548;28;19931;-78
2022/10/15 08:57:56;;;;;;;;;;;13.80;99.90;;;;;;5095397;28;19908;-78
2022/10/15 09:00:24;;;;;;;;;;;13.80;99.90;;;;;;5078553;28;20012;-76
2022/10/15 09:02:50;;;;;;;;;;;14.00;99.90;;;;;;5100217;28;19912;-76
2022/10/15 09:05:25;;;;;;;;;;;14.20;99.90;;;;;;5081961;28;20240;-78
2022/10/15 09:08:03;;;;;;;;;;;14.50;99.90;;;;;;5100306;28;19916;-76
2022/10/15 09:10:29;;;;;;;;;;;14.50;99.90;;;;;;5091936;28;19919;-77
2022/10/15 09:13:00;;;;;;;;;;;14.80;99.90;;;;;;5095359;28;19912;-78
2022/10/15 09:15:26;;;;;;;;;;;14.90;99.90;;;;;;5109477;28;20006;-78
2022/10/15 09:17:53;;;;;;;;;;;15.10;99.90;;;;;;5101769;28;19924;-75
2022/10/15 09:20:38;;;;;;;;;;;15.10;99.90;;;;;;5102636;28;19912;-77
2022/10/15 09:23:09;;;;;;;;;;;15.10;99.90;;;;;;5071754;28;19951;-77
2022/10/15 09:25:35;;;;;;;;;;;15.10;99.90;;;;;;5104020;28;19939;-78
2022/10/15 09:28:08;;;;;;;;;;;15.00;99.90;;;;;;5106640;28;19937;-77
2022/10/15 09:30:41;;;;;;;;;;;15.00;99.90;;;;;;5102617;28;20315;-77
2022/10/15 09:33:25;;;;;;;;;;;14.90;99.90;;;;;;5088555;28;19923;-77
2022/10/15 09:36:03;;;;;;;;;;;14.90;99.90;;;;;;5067539;28;19917;-77
2022/10/15 09:38:29;;;;;;;;;;;15.00;99.90;;;;;;5114925;28;20498;-77
2022/10/15 09:40:54;;;;;;;;;;;15.00;99.90;;;;;;5091213;28;19941;-78
2022/10/15 09:43:26;;;;;;;;;;;15.00;99.90;;;;;;5105067;28;20002;-77
2022/10/15 09:45:52;;;;;;;;;;;15.10;99.90;;;;;;5090047;28;19918;-77
2022/10/15 09:48:18;;;;;;;;;;;14.90;99.90;;;;;;5105542;28;19912;-77
2022/10/15 09:50:59;;;;;;;;;;;14.90;99.90;;;;;;5077618;28;19918;-77
2022/10/15 09:53:24;;;;;;;;;;;14.90;99.90;;;;;;5102485;28;20017;-78
2022/10/15 09:55:50;;;;;;;;;;;14.90;99.90;;;;;;5087599;28;20263;-77
2022/10/15 09:58:38;;;;;;;;;;;15.00;99.90;;;;;;5094968;28;20274;-81
2022/10/15 10:01:05;;;;;;;;;;;15.00;99.90;;;;;;5064804;28;20141;-78
2022/10/15 10:03:31;;;;;;;;;;;15.10;99.90;;;;;;5098679;28;19915;-76
2022/10/15 10:06:07;;;;;;;;;;;15.10;99.90;;;;;;5103448;28;19913;-75
2022/10/15 10:08:53;;;;;;;;;;;15.10;99.90;;;;;;5101249;28;20528;-75
2022/10/15 10:11:19;;;;;;;;;;;15.10;99.90;;;;;;5105849;28;19951;-79
2022/10/15 10:13:49;;;;;;;;;;;15.00;99.90;;;;;;5108470;28;19962;-75
2022/10/15 10:16:17;;;;;;;;;;;15.00;99.90;;;;;;5085867;28;19912;-76
2022/10/15 10:18:49;;;;;;;;;;;15.00;99.90;;;;;;5108589;28;19916;-75
2022/10/15 10:21:28;;;;;;;;;;;15.10;99.90;;;;;;5100840;28;20056;-75
2022/10/15 10:23:54;;;;;;;;;;;15.10;99.90;;;;;;5064096;28;19998;-76
2022/10/15 10:26:20;;;;;;;;;;;15.00;99.90;;;;;;5104140;28;20041;-76
2022/10/15 10:28:50;;;;;;;;;;;15.00;99.90;;;;;;5105429;28;20215;-75
2022/10/15 10:31:16;;;;;;;;;;;15.00;99.90;;;;;;5105829;28;19912;-76
2022/10/15 10:33:46;;;;;;;;;;;15.00;99.90;;;;;;5097381;28;19930;-75
2022/10/15 10:36:27;;;;;;;;;;;15.00;99.90;;;;;;5084110;28;20010;-75
2022/10/15 10:38:54;;;;;;;;;;;15.00;99.90;;;;;;5100025;28;19966;-76
2022/10/15 10:41:20;;;;;;;;;;;14.90;99.90;;;;;;5082123;28;19994;-77
2022/10/15 10:43:53;;;;;;;;;;;14.90;99.90;;;;;;5078810;28;20015;-77
2022/10/15 10:46:21;;;;;;;;;;;14.90;99.90;;;;;;5096832;28;19912;-75
2022/10/15 10:48:48;;;;;;;;;;;14.90;99.90;;;;;;5096741;28;19917;-79
2022/10/15 10:51:15;;;;;;;;;;;14.90;99.90;;;;;;5094174;28;20003;-77
2022/10/15 10:53:46;;;;;;;;;;;14.90;99.90;;;;;;5093110;28;20011;-77
2022/10/15 10:56:14;;;;;;;;;;;14.90;99.90;;;;;;5109602;28;20307;-75
2022/10/15 10:58:40;;;;;;;;;;;14.90;99.90;;;;;;5086876;28;20041;-76
2022/10/15 11:01:09;;;;;;;;;;;14.90;99.90;;;;;;5106888;28;19919;-75
2022/10/15 11:03:36;;;;;;;;;;;14.90;99.90;;;;;;5108522;28;19908;-75
2022/10/15 11:06:04;;;;;;;;;;;15.00;99.90;;;;;;5084957;28;19908;-77
2022/10/15 11:08:40;;;;;;;;;;;15.00;99.90;;;;;;5106168;28;20367;-78
2022/10/15 11:11:11;;;;;;;;;;;15.00;99.90;;;;;;5103024;28;19920;-75
2022/10/15 11:13:40;;;;;;;;;;;15.00;99.90;;;;;;5087804;28;19918;-74
2022/10/15 11:16:34;;;;;;;;;;;15.00;99.90;;;;;;5102858;28;19930;-77
2022/10/15 11:19:00;;;;;;;;;;;15.00;99.90;;;;;;5071723;28;19919;-78
2022/10/15 11:21:40;;;;;;;;;;;15.00;99.90;;;;;;5097266;28;19920;-78
2022/10/15 11:24:15;;;;;;;;;;;15.00;99.90;;;;;;5096759;28;19926;-76
2022/10/15 11:26:55;;;;;;;;;;;15.00;99.90;;;;;;5103175;28;19915;-76
2022/10/15 11:29:40;;;;;;;;;;;15.00;99.90;;;;;;5103450;28;20049;-77
2022/10/15 11:32:31;;;;;;;;;;;14.90;99.90;;;;;;5108238;28;19923;-77
2022/10/15 11:34:57;;;;;;;;;;;14.90;99.90;;;;;;5076762;28;19985;-76
2022/10/15 11:37:31;;;;;;;;;;;14.90;99.90;;;;;;5095943;28;20303;-76
2022/10/15 11:40:03;;;;;;;;;;;14.90;99.90;;;;;;5098873;28;20320;-77
2022/10/15 11:42:45;;;;;;;;;;;14.90;99.90;;;;;;5097081;28;19962;-75
2022/10/15 11:45:23;;;;;;;;;;;14.90;99.90;;;;;;5099630;28;19916;-76
2022/10/15 11:47:58;;;;;;;;;;;15.00;99.90;;;;;;5079901;28;19956;-76
2022/10/15 11:50:30;;;;;;;;;;;15.00;99.90;;;;;;5093974;28;20011;-75
2022/10/15 11:52:58;;;;;;;;;;;15.00;99.90;;;;;;5076488;28;19970;-76
2022/10/15 11:56:00;;;;;;;;;;;15.10;99.90;;;;;;5076901;28;19916;-75
2022/10/15 11:58:29;;;;;;;;;;;15.10;99.90;;;;;;4998044;28;20000;-76
2022/10/15 12:00:57;;;;;;;;;;;15.10;99.90;;;;;;5056570;28;19915;-81
2022/10/15 12:03:24;;;;;;;;;;;15.10;99.90;;;;;;5102837;28;19912;-76
2022/10/15 12:06:02;;;;;;;;;;;15.10;99.90;;;;;;5082398;28;19912;-76
2022/10/15 12:08:30;;;;;;;;;;;15.10;99.90;;;;;;5085646;28;19919;-77
2022/10/15 12:11:03;;;;;;;;;;;15.10;99.90;;;;;;5101773;28;19927;-76
2022/10/15 12:13:45;;;;;;;;;;;15.10;99.90;;;;;;5105193;28;19951;-78
2022/10/15 12:16:11;;;;;;;;;;;15.10;99.90;;;;;;5078642;28;19963;-80
2022/10/15 12:18:39;;;;;;;;;;;15.10;99.90;;;;;;5088701;28;19943;-76
2022/10/15 12:21:24;;;;;;;;;;;15.10;99.90;;;;;;5089990;28;19919;-79
2022/10/15 12:23:49;;;;;;;;;;;15.10;99.90;;;;;;5103921;28;19916;-77
2022/10/15 12:26:21;;;;;;;;;;;15.20;99.90;;;;;;5108477;28;19933;-75
2022/10/15 12:28:47;;;;;;;;;;;15.20;99.90;;;;;;5104843;28;19923;-75
2022/10/15 12:31:14;;;;;;;;;;;15.20;99.90;;;;;;5099186;28;20007;-75
2022/10/15 12:33:56;;;;;;;;;;;15.20;99.90;;;;;;5099089;28;20317;-76
2022/10/15 12:36:28;;;;;;;;;;;15.20;99.90;;;;;;5096347;28;20450;-77
2022/10/15 12:39:04;;;;;;;;;;;15.30;99.90;;;;;;5100308;28;19908;-80
2022/10/15 12:41:34;;;;;;;;;;;15.20;99.90;;;;;;5100433;28;19912;-75
2022/10/15 12:44:04;;;;;;;;;;;15.30;99.90;;;;;;5083509;28;19908;-77
2022/10/15 12:46:35;;;;;;;;;;;15.30;99.90;;;;;;5087006;28;20352;-78
2022/10/15 12:49:21;;;;;;;;;;;15.30;99.90;;;;;;5079056;28;19912;-79
2022/10/15 12:51:46;;;;;;;;;;;15.40;99.90;;;;;;5091827;28;19916;-79
2022/10/15 12:54:32;;;;;;;;;;;15.50;99.90;;;;;;5087884;28;20219;-78
2022/10/15 12:56:58;;;;;;;;;;;15.50;99.90;;;;;;5098501;28;20341;-76
2022/10/15 12:59:47;;;;;;;;;;;15.50;99.90;;;;;;5096613;28;19912;-77
2022/10/15 13:02:39;;;;;;;;;;;15.60;99.90;;;;;;5077838;28;19914;-77
2022/10/15 13:05:06;;;;;;;;;;;15.60;99.90;;;;;;5111756;28;19918;-78
2022/10/15 13:07:33;;;;;;;;;;;15.60;99.90;;;;;;5071190;28;19923;-78
2022/10/15 13:10:00;;;;;;;;;;;15.60;99.90;;;;;;5094419;28;19912;-81
2022/10/15 13:12:27;;;;;;;;;;;15.70;99.90;;;;;;5096471;28;19916;-77
2022/10/15 13:14:58;;;;;;;;;;;15.70;99.90;;;;;;5095156;28;19916;-80
2022/10/15 13:17:24;;;;;;;;;;;15.70;99.90;;;;;;5068446;28;20463;-80
2022/10/15 13:19:57;;;;;;;;;;;15.70;99.90;;;;;;5075379;28;19919;-79
2022/10/15 13:22:27;;;;;;;;;;;15.80;99.90;;;;;;5095230;28;19958;-79
2022/10/15 13:24:54;;;;;;;;;;;15.90;99.90;;;;;;5096450;28;19909;-80
2022/10/15 13:27:24;;;;;;;;;;;16.10;99.90;;;;;;5096319;28;19908;-79
2022/10/15 13:29:54;;;;;;;;;;;16.20;99.90;;;;;;5078191;28;19912;-78
2022/10/15 13:32:20;;;;;;;;;;;16.10;99.90;;;;;;5057049;28;19916;-78
2022/10/15 13:34:46;;;;;;;;;;;16.20;99.90;;;;;;5096744;28;19924;-80
2022/10/15 13:37:15;;;;;;;;;;;16.20;99.90;;;;;;5080045;28;19912;-77
2022/10/15 13:39:41;;;;;;;;;;;16.30;99.90;;;;;;5089792;28;20218;-80
2022/10/15 13:42:21;;;;;;;;;;;16.40;99.90;;;;;;5081275;28;19924;-79
2022/10/15 13:45:21;;;;;;;;;;;16.40;99.90;;;;;;5098300;28;19916;-80
2022/10/15 13:47:48;;;;;;;;;;;16.40;99.90;;;;;;4984199;28;19945;-83
2022/10/15 13:50:21;;;;;;;;;;;16.40;99.90;;;;;;4993020;28;20325;-78
2022/10/15 13:52:49;;;;;;;;;;;16.30;99.90;;;;;;4979681;28;20013;-77
2022/10/15 13:55:20;;;;;;;;;;;16.30;99.90;;;;;;4992620;28;20538;-78
2022/10/15 13:57:47;;;;;;;;;;;16.30;99.90;;;;;;4992997;28;20313;-78
2022/10/15 14:00:23;;;;;;;;;;;16.30;99.90;;;;;;4991525;28;19914;-78
2022/10/15 14:03:09;;;;;;;;;;;16.30;99.90;;;;;;4983536;28;19918;-82
2022/10/15 14:05:34;;;;;;;;;;;16.30;99.90;;;;;;4981811;28;19974;-78
2022/10/15 14:08:00;;;;;;;;;;;16.30;99.90;;;;;;4979925;28;19914;-76
2022/10/15 14:10:26;;;;;;;;;;;16.20;99.90;;;;;;4992650;28;19918;-76
2022/10/15 14:12:51;;;;;;;;;;;16.10;99.90;;;;;;4974021;28;19929;-76
2022/10/15 14:15:36;;;;;;;;;;;16.10;99.90;;;;;;5004850;28;20583;-78
2022/10/15 14:18:01;;;;;;;;;;;16.00;99.90;;;;;;4989975;28;19952;-76
2022/10/15 14:20:27;;;;;;;;;;;16.10;99.90;;;;;;4976499;28;19910;-79
2022/10/15 14:22:53;;;;;;;;;;;16.10;99.90;;;;;;5083410;28;19914;-77
2022/10/15 14:25:23;;;;;;;;;;;16.10;99.90;;;;;;5087738;28;19918;-78